Nunobiki Maru — JD3399 — position and weather

sailwx.info

Track history (hours):
 
Tides and Currents Weather Stations Pressure Air Temp Water Temp Dewpoint Dewpoint Depression Visibility Wind Speed Wind Dir Waves Ship Positions

Nunobiki Maru

Last reported at 2017-Dec-11 16:58 UTC. Time now 2017-Dec-12 14:04 UTC.
Position N 34°40' E 135°14'.

Length 34 m; draft 3.8 m.

Type: Tug. MMSI: 431003839.

Date/timePositionNaut miles runAvg speedWind from/ knotsBaromVisibWave heightAir tempDewpointWater temp
2017-Dec-11 16:58N 34°40' E 135°14'0 0.0
2017-Dec-11 16:30N 34°40' E 135°14'1 1.5
2017-Dec-11 16:01N 34°39' E 135°15'1 1.1
2017-Dec-11 15:31N 34°40' E 135°14'0 0.5
2017-Dec-11 14:59N 34°40' E 135°14'0 0.0
2017-Dec-11 14:29N 34°40' E 135°14'0 0.0
2017-Dec-11 13:59N 34°40' E 135°14'0 0.9
2017-Dec-11 13:30N 34°40' E 135°14'1 3.0
2017-Dec-11 13:01N 34°39' E 135°16'2 3.4
2017-Dec-11 12:30N 34°40' E 135°15'0 0.8
2017-Dec-11 11:59N 34°40' E 135°14'0 0.0
2017-Dec-11 11:30N 34°40' E 135°14'3 5.6
2017-Dec-11 11:00N 34°41' E 135°17'1 1.5
2017-Dec-11 10:30N 34°41' E 135°18'1 1.4
2017-Dec-11 10:00N 34°41' E 135°17'2 3.5
2017-Dec-11 09:30N 34°40' E 135°15'2 3.4
2017-Dec-11 09:00N 34°40' E 135°13'0 0.0
2017-Dec-11 08:30N 34°40' E 135°13'0 0.0
2017-Dec-11 08:00N 34°40' E 135°13'0 0.0
2017-Dec-11 07:30N 34°40' E 135°13'0 0.0
2017-Dec-11 07:00N 34°40' E 135°13'0 0.7
2017-Dec-11 06:30N 34°40' E 135°14'0 0.1
2017-Dec-11 06:00N 34°40' E 135°14'2 3.1
2017-Dec-11 05:30N 34°41' E 135°12'0 0.0
2017-Dec-11 05:00N 34°41' E 135°12'0 0.0
2017-Dec-11 04:30N 34°41' E 135°12'0 0.0
2017-Dec-11 04:00N 34°41' E 135°12'0 0.0
2017-Dec-11 03:30N 34°41' E 135°12'0 0.0
2017-Dec-11 03:00N 34°41' E 135°12'0 0.0
2017-Dec-11 02:30N 34°41' E 135°12'0 0.0
2017-Dec-11 02:00N 34°41' E 135°12'0 0.0
2017-Dec-11 01:30N 34°41' E 135°12'0 0.0
2017-Dec-11 01:00N 34°41' E 135°12'0 0.0
2017-Dec-11 00:30N 34°41' E 135°12'1 2.9
2017-Dec-11 00:00N 34°41' E 135°14'1 1.7
2017-Dec-10 23:30N 34°42' E 135°15'0 0.7
2017-Dec-10 23:00N 34°42' E 135°15'2 4.1
2017-Dec-10 22:30N 34°40' E 135°15'0 0.5
2017-Dec-10 22:00N 34°40' E 135°15'1 1.2
2017-Dec-10 21:30N 34°40' E 135°15'2 4.7
2017-Dec-10 21:00N 34°41' E 135°12'0 0.0
2017-Dec-10 20:30N 34°41' E 135°12'3 0.2
2017-Dec-10 03:50N 34°41' E 135°16'412.0
2017-Dec-10 03:30N 34°39' E 135°20'3 6.0
2017-Dec-10 03:00N 34°39' E 135°24'1 2.8
2017-Dec-10 02:30N 34°38' E 135°23'3 5.5
2017-Dec-10 02:00N 34°37' E 135°20'5 9.7
2017-Dec-10 01:30N 34°39' E 135°15'0 0.0
2017-Dec-10 01:00N 34°39' E 135°15'0 0.0
2017-Dec-10 00:30N 34°39' E 135°15'0 0.0
2017-Dec-10 00:00N 34°39' E 135°15'0 0.0
2017-Dec-09 23:30N 34°39' E 135°15'0 0.0
2017-Dec-09 23:00N 34°39' E 135°15'1 2.0
2017-Dec-09 22:31N 34°40' E 135°14'2 3.8
2017-Dec-09 22:00N 34°39' E 135°16'4 7.8
2017-Dec-09 21:30N 34°41' E 135°12'0 0.1
2017-Dec-09 20:58N 34°41' E 135°12'0 0.0
2017-Dec-09 20:28N 34°41' E 135°12'0 0.0
2017-Dec-09 14:37N 34°41' E 135°12'0 2.5
2017-Dec-09 14:30N 34°41' E 135°12'2 4.5
2017-Dec-09 14:00N 34°41' E 135°15'1 1.3
2017-Dec-09 13:28N 34°41' E 135°14'0 0.0
2017-Dec-09 12:58N 34°41' E 135°14'0 0.0
2017-Dec-09 12:28N 34°41' E 135°14'0 0.0
2017-Dec-09 11:58N 34°41' E 135°14'0 0.0
2017-Dec-09 11:28N 34°41' E 135°14'1 1.3
2017-Dec-09 11:00N 34°41' E 135°15'2 3.6
2017-Dec-09 10:30N 34°41' E 135°17'0 0.4
2017-Dec-09 10:00N 34°41' E 135°17'4 6.8
2017-Dec-09 09:29N 34°40' E 135°13'0 0.0
2017-Dec-09 08:59N 34°40' E 135°13'0 0.0
2017-Dec-09 08:29N 34°40' E 135°13'1 1.1
2017-Dec-09 08:00N 34°40' E 135°14'2 3.0
2017-Dec-09 07:30N 34°41' E 135°16'1 2.8
2017-Dec-09 07:00N 34°39' E 135°16'2 4.4
2017-Dec-09 06:31N 34°41' E 135°14'1 2.7
2017-Dec-09 05:59N 34°41' E 135°12'0 0.0
2017-Dec-09 05:29N 34°41' E 135°12'0 0.0
2017-Dec-09 04:59N 34°41' E 135°12'0 0.0
2017-Dec-09 04:29N 34°41' E 135°12'0 0.0
2017-Dec-09 03:59N 34°41' E 135°12'0 0.0
2017-Dec-09 03:29N 34°41' E 135°12'0 0.0
2017-Dec-09 02:59N 34°41' E 135°12'0 0.0
2017-Dec-09 02:29N 34°41' E 135°12'0 0.0
2017-Dec-09 01:59N 34°41' E 135°12'0 0.0
2017-Dec-09 01:29N 34°41' E 135°12'0 0.0
2017-Dec-09 00:59N 34°41' E 135°12'0 0.0
2017-Dec-09 00:29N 34°41' E 135°12'0 0.0
2017-Dec-08 23:59N 34°41' E 135°12'0 0.0
2017-Dec-08 23:29N 34°41' E 135°12'0 0.0
2017-Dec-08 22:58N 34°41' E 135°12'0 0.0
2017-Dec-08 04:57N 34°41' E 135°12'0 0.0
2017-Dec-08 04:30N 34°41' E 135°12'0 0.0
2017-Dec-08 04:00N 34°41' E 135°12'0 0.0
2017-Dec-08 03:30N 34°41' E 135°12'0 0.0
2017-Dec-08 03:00N 34°41' E 135°12'0 0.0
2017-Dec-08 02:30N 34°41' E 135°12'0 0.0
2017-Dec-08 02:00N 34°41' E 135°12'0 0.0
2017-Dec-08 01:30N 34°41' E 135°12'0 0.0
2017-Dec-08 01:00N 34°41' E 135°12'0 0.0
2017-Dec-08 00:30N 34°41' E 135°12'0 0.0
2017-Dec-08 00:00N 34°41' E 135°12'0 0.0
2017-Dec-07 23:30N 34°41' E 135°12'0 0.0
2017-Dec-07 23:01N 34°41' E 135°12'3 5.5
2017-Dec-07 22:28N 34°42' E 135°16'1 2.6
2017-Dec-07 22:00N 34°41' E 135°15'1 1.8
2017-Dec-07 21:31N 34°41' E 135°13'1 2.1
2017-Dec-07 20:58N 34°41' E 135°12'0 0.0
2017-Dec-07 20:28N 34°41' E 135°12'0 0.0
2017-Dec-06 23:17N 34°41' E 135°12'2 8.2
2017-Dec-06 23:01N 34°40' E 135°15'1 2.0
2017-Dec-06 22:31N 34°39' E 135°15'0 0.8
2017-Dec-06 22:01N 34°39' E 135°16'2 3.4
2017-Dec-06 21:28N 34°40' E 135°14'0 0.0
2017-Dec-06 20:58N 34°40' E 135°14'  
2017-Dec-04 07:13N 34°41' E 135°12'2 9.9
2017-Dec-04 07:01N 34°42' E 135°15'0 0.3
2017-Dec-04 06:30N 34°42' E 135°15'2 3.7
2017-Dec-04 06:00N 34°40' E 135°15'1 1.0
2017-Dec-04 05:31N 34°40' E 135°15'2 4.4
2017-Dec-04 05:01N 34°41' E 135°12'0 0.0
2017-Dec-04 04:31N 34°41' E 135°12'0 0.0
2017-Dec-04 04:01N 34°41' E 135°12'0 0.0
2017-Dec-04 03:30N 34°41' E 135°12'0 0.0
2017-Dec-04 03:00N 34°41' E 135°12'0 0.0
2017-Dec-04 02:31N 34°41' E 135°12'0 0.0
2017-Dec-04 02:01N 34°41' E 135°12'0 0.0
2017-Dec-04 01:30N 34°41' E 135°12'0 0.0
2017-Dec-04 01:01N 34°41' E 135°12'0 0.0
2017-Dec-04 00:30N 34°41' E 135°12'0 0.0
2017-Dec-04 00:01N 34°41' E 135°12'0 0.0
2017-Dec-03 23:30N 34°41' E 135°12'0 0.0
2017-Dec-03 23:00N 34°41' E 135°12'2 0.1
2017-Dec-03 06:24N 34°40' E 135°14'0 0.3
2017-Dec-03 06:00N 34°40' E 135°14'2 3.3
2017-Dec-03 05:31N 34°39' E 135°16'4 7.6
2017-Dec-03 05:01N 34°41' E 135°12'0 0.0
2017-Dec-03 04:29N 34°41' E 135°12'0 0.0
2017-Dec-03 03:59N 34°41' E 135°12'0 0.0
2017-Dec-03 03:29N 34°41' E 135°12'0 0.0
2017-Dec-03 02:59N 34°41' E 135°12'0 0.0
2017-Dec-03 02:29N 34°41' E 135°12'0 0.0
2017-Dec-03 02:00N 34°41' E 135°12'0 0.0
2017-Dec-03 01:29N 34°41' E 135°12'0 0.0
2017-Dec-03 00:59N 34°41' E 135°12'0 0.0
2017-Dec-03 00:29N 34°41' E 135°12'0 0.0
2017-Dec-02 23:59N 34°41' E 135°12'0 0.0
2017-Dec-02 23:29N 34°41' E 135°12'3 5.8
2017-Dec-02 23:00N 34°41' E 135°15'1 2.8
2017-Dec-02 22:31N 34°41' E 135°17'1 1.1
2017-Dec-02 22:01N 34°41' E 135°18'1 2.2
2017-Dec-02 21:31N 34°40' E 135°18'4 7.1
2017-Dec-02 21:01N 34°41' E 135°14'1 2.7
2017-Dec-02 20:31N 34°41' E 135°12'0 0.0
2017-Dec-02 12:16N 34°41' E 135°12'2 8.2
2017-Dec-02 12:00N 34°40' E 135°15'1 2.5
2017-Dec-02 11:30N 34°39' E 135°15'1 2.2
2017-Dec-02 11:00N 34°39' E 135°16'1 2.1
2017-Dec-02 10:29N 34°39' E 135°15'1 2.7
2017-Dec-02 10:00N 34°40' E 135°15'1 1.8
2017-Dec-02 09:28N 34°41' E 135°15'0 0.0
2017-Dec-02 08:58N 34°41' E 135°15'0 0.0
2017-Dec-02 08:28N 34°41' E 135°15'0 0.0
2017-Dec-02 07:59N 34°41' E 135°15'2 3.2
2017-Dec-02 07:31N 34°40' E 135°14'2 4.0
2017-Dec-02 07:00N 34°39' E 135°16'1 2.5
2017-Dec-02 06:30N 34°39' E 135°15'0 0.0
2017-Dec-02 06:00N 34°39' E 135°15'0 0.0
2017-Dec-02 05:30N 34°39' E 135°15'0 0.0
2017-Dec-02 05:00N 34°39' E 135°15'0 0.0
2017-Dec-02 04:30N 34°39' E 135°15'1 1.7
2017-Dec-02 04:00N 34°40' E 135°14'0 0.4
2017-Dec-02 03:30N 34°40' E 135°14'0 0.0
2017-Dec-02 03:00N 34°40' E 135°14'0 0.0
2017-Dec-02 02:30N 34°40' E 135°14'0 0.0
2017-Dec-02 02:00N 34°40' E 135°14'0 0.0
2017-Dec-02 01:31N 34°40' E 135°14'0 0.0
2017-Dec-02 01:00N 34°40' E 135°14'0 0.0
2017-Dec-02 00:31N 34°40' E 135°14'0 0.0
2017-Dec-02 00:00N 34°40' E 135°14'0 0.0
2017-Dec-01 23:30N 34°40' E 135°14'4 7.4
2017-Dec-01 23:00N 34°41' E 135°18'1 1.6
2017-Dec-01 22:30N 34°42' E 135°18'1 2.4
2017-Dec-01 22:01N 34°41' E 135°18'1 2.0
2017-Dec-01 21:30N 34°41' E 135°17'4 8.1
2017-Dec-01 21:00N 34°41' E 135°12'0 0.0
2017-Dec-01 20:29N 34°41' E 135°12'  
Track history (hours):
 
Tides and Currents Weather Stations Pressure Air Temp Water Temp Dewpoint Dewpoint Depression Visibility Wind Speed Wind Dir Waves Ship Positions

Nunobiki Maru

Last reported at 2017-Dec-11 16:58 UTC. Time now 2017-Dec-12 14:04 UTC.
Position N 34°40' E 135°14'.

Length 34 m; draft 3.8 m.

Type: Tug. MMSI: 431003839.

Date/timePositionNaut miles runAvg speedWind from/ knotsBaromVisibWave heightAir tempDewpointWater temp
2017-Dec-11 16:58N 34°40' E 135°14'0 0.0
2017-Dec-11 16:30N 34°40' E 135°14'1 1.5
2017-Dec-11 16:01N 34°39' E 135°15'1 1.1
2017-Dec-11 15:31N 34°40' E 135°14'0 0.5
2017-Dec-11 14:59N 34°40' E 135°14'0 0.0
2017-Dec-11 14:29N 34°40' E 135°14'0 0.0
2017-Dec-11 13:59N 34°40' E 135°14'0 0.9
2017-Dec-11 13:30N 34°40' E 135°14'1 3.0
2017-Dec-11 13:01N 34°39' E 135°16'2 3.4
2017-Dec-11 12:30N 34°40' E 135°15'0 0.8
2017-Dec-11 11:59N 34°40' E 135°14'0 0.0
2017-Dec-11 11:30N 34°40' E 135°14'3 5.6
2017-Dec-11 11:00N 34°41' E 135°17'1 1.5
2017-Dec-11 10:30N 34°41' E 135°18'1 1.4
2017-Dec-11 10:00N 34°41' E 135°17'2 3.5
2017-Dec-11 09:30N 34°40' E 135°15'2 3.4
2017-Dec-11 09:00N 34°40' E 135°13'0 0.0
2017-Dec-11 08:30N 34°40' E 135°13'0 0.0
2017-Dec-11 08:00N 34°40' E 135°13'0 0.0
2017-Dec-11 07:30N 34°40' E 135°13'0 0.0
2017-Dec-11 07:00N 34°40' E 135°13'0 0.7
2017-Dec-11 06:30N 34°40' E 135°14'0 0.1
2017-Dec-11 06:00N 34°40' E 135°14'2 3.1
2017-Dec-11 05:30N 34°41' E 135°12'0 0.0
2017-Dec-11 05:00N 34°41' E 135°12'0 0.0
2017-Dec-11 04:30N 34°41' E 135°12'0 0.0
2017-Dec-11 04:00N 34°41' E 135°12'0 0.0
2017-Dec-11 03:30N 34°41' E 135°12'0 0.0
2017-Dec-11 03:00N 34°41' E 135°12'0 0.0
2017-Dec-11 02:30N 34°41' E 135°12'0 0.0
2017-Dec-11 02:00N 34°41' E 135°12'0 0.0
2017-Dec-11 01:30N 34°41' E 135°12'0 0.0
2017-Dec-11 01:00N 34°41' E 135°12'0 0.0
2017-Dec-11 00:30N 34°41' E 135°12'1 2.9
2017-Dec-11 00:00N 34°41' E 135°14'1 1.7
2017-Dec-10 23:30N 34°42' E 135°15'0 0.7
2017-Dec-10 23:00N 34°42' E 135°15'2 4.1
2017-Dec-10 22:30N 34°40' E 135°15'0 0.5
2017-Dec-10 22:00N 34°40' E 135°15'1 1.2
2017-Dec-10 21:30N 34°40' E 135°15'2 4.7
2017-Dec-10 21:00N 34°41' E 135°12'0 0.0
2017-Dec-10 20:30N 34°41' E 135°12'3 0.2
2017-Dec-10 03:50N 34°41' E 135°16'412.0
2017-Dec-10 03:30N 34°39' E 135°20'3 6.0
2017-Dec-10 03:00N 34°39' E 135°24'1 2.8
2017-Dec-10 02:30N 34°38' E 135°23'3 5.5
2017-Dec-10 02:00N 34°37' E 135°20'5 9.7
2017-Dec-10 01:30N 34°39' E 135°15'0 0.0
2017-Dec-10 01:00N 34°39' E 135°15'0 0.0
2017-Dec-10 00:30N 34°39' E 135°15'0 0.0
2017-Dec-10 00:00N 34°39' E 135°15'0 0.0
2017-Dec-09 23:30N 34°39' E 135°15'0 0.0
2017-Dec-09 23:00N 34°39' E 135°15'1 2.0
2017-Dec-09 22:31N 34°40' E 135°14'2 3.8
2017-Dec-09 22:00N 34°39' E 135°16'4 7.8
2017-Dec-09 21:30N 34°41' E 135°12'0 0.1
2017-Dec-09 20:58N 34°41' E 135°12'0 0.0
2017-Dec-09 20:28N 34°41' E 135°12'0 0.0
2017-Dec-09 14:37N 34°41' E 135°12'0 2.5
2017-Dec-09 14:30N 34°41' E 135°12'2 4.5
2017-Dec-09 14:00N 34°41' E 135°15'1 1.3
2017-Dec-09 13:28N 34°41' E 135°14'0 0.0
2017-Dec-09 12:58N 34°41' E 135°14'0 0.0
2017-Dec-09 12:28N 34°41' E 135°14'0 0.0
2017-Dec-09 11:58N 34°41' E 135°14'0 0.0
2017-Dec-09 11:28N 34°41' E 135°14'1 1.3
2017-Dec-09 11:00N 34°41' E 135°15'2 3.6
2017-Dec-09 10:30N 34°41' E 135°17'0 0.4
2017-Dec-09 10:00N 34°41' E 135°17'4 6.8
2017-Dec-09 09:29N 34°40' E 135°13'0 0.0
2017-Dec-09 08:59N 34°40' E 135°13'0 0.0
2017-Dec-09 08:29N 34°40' E 135°13'1 1.1
2017-Dec-09 08:00N 34°40' E 135°14'2 3.0
2017-Dec-09 07:30N 34°41' E 135°16'1 2.8
2017-Dec-09 07:00N 34°39' E 135°16'2 4.4
2017-Dec-09 06:31N 34°41' E 135°14'1 2.7
2017-Dec-09 05:59N 34°41' E 135°12'0 0.0
2017-Dec-09 05:29N 34°41' E 135°12'0 0.0
2017-Dec-09 04:59N 34°41' E 135°12'0 0.0
2017-Dec-09 04:29N 34°41' E 135°12'0 0.0
2017-Dec-09 03:59N 34°41' E 135°12'0 0.0
2017-Dec-09 03:29N 34°41' E 135°12'0 0.0
2017-Dec-09 02:59N 34°41' E 135°12'0 0.0
2017-Dec-09 02:29N 34°41' E 135°12'0 0.0
2017-Dec-09 01:59N 34°41' E 135°12'0 0.0
2017-Dec-09 01:29N 34°41' E 135°12'0 0.0
2017-Dec-09 00:59N 34°41' E 135°12'0 0.0
2017-Dec-09 00:29N 34°41' E 135°12'0 0.0
2017-Dec-08 23:59N 34°41' E 135°12'0 0.0
2017-Dec-08 23:29N 34°41' E 135°12'0 0.0
2017-Dec-08 22:58N 34°41' E 135°12'0 0.0
2017-Dec-08 04:57N 34°41' E 135°12'0 0.0
2017-Dec-08 04:30N 34°41' E 135°12'0 0.0
2017-Dec-08 04:00N 34°41' E 135°12'0 0.0
2017-Dec-08 03:30N 34°41' E 135°12'0 0.0
2017-Dec-08 03:00N 34°41' E 135°12'0 0.0
2017-Dec-08 02:30N 34°41' E 135°12'0 0.0
2017-Dec-08 02:00N 34°41' E 135°12'0 0.0
2017-Dec-08 01:30N 34°41' E 135°12'0 0.0
2017-Dec-08 01:00N 34°41' E 135°12'0 0.0
2017-Dec-08 00:30N 34°41' E 135°12'0 0.0
2017-Dec-08 00:00N 34°41' E 135°12'0 0.0
2017-Dec-07 23:30N 34°41' E 135°12'0 0.0
2017-Dec-07 23:01N 34°41' E 135°12'3 5.5
2017-Dec-07 22:28N 34°42' E 135°16'1 2.6
2017-Dec-07 22:00N 34°41' E 135°15'1 1.8
2017-Dec-07 21:31N 34°41' E 135°13'1 2.1
2017-Dec-07 20:58N 34°41' E 135°12'0 0.0
2017-Dec-07 20:28N 34°41' E 135°12'0 0.0
2017-Dec-06 23:17N 34°41' E 135°12'2 8.2
2017-Dec-06 23:01N 34°40' E 135°15'1 2.0
2017-Dec-06 22:31N 34°39' E 135°15'0 0.8
2017-Dec-06 22:01N 34°39' E 135°16'2 3.4
2017-Dec-06 21:28N 34°40' E 135°14'0 0.0
2017-Dec-06 20:58N 34°40' E 135°14'  
2017-Dec-04 07:13N 34°41' E 135°12'2 9.9
2017-Dec-04 07:01N 34°42' E 135°15'0 0.3
2017-Dec-04 06:30N 34°42' E 135°15'2 3.7
2017-Dec-04 06:00N 34°40' E 135°15'1 1.0
2017-Dec-04 05:31N 34°40' E 135°15'2 4.4
2017-Dec-04 05:01N 34°41' E 135°12'0 0.0
2017-Dec-04 04:31N 34°41' E 135°12'0 0.0
2017-Dec-04 04:01N 34°41' E 135°12'0 0.0
2017-Dec-04 03:30N 34°41' E 135°12'0 0.0
2017-Dec-04 03:00N 34°41' E 135°12'0 0.0
2017-Dec-04 02:31N 34°41' E 135°12'0 0.0
2017-Dec-04 02:01N 34°41' E 135°12'0 0.0
2017-Dec-04 01:30N 34°41' E 135°12'0 0.0
2017-Dec-04 01:01N 34°41' E 135°12'0 0.0
2017-Dec-04 00:30N 34°41' E 135°12'0 0.0
2017-Dec-04 00:01N 34°41' E 135°12'0 0.0
2017-Dec-03 23:30N 34°41' E 135°12'0 0.0
2017-Dec-03 23:00N 34°41' E 135°12'2 0.1
2017-Dec-03 06:24N 34°40' E 135°14'0 0.3
2017-Dec-03 06:00N 34°40' E 135°14'2 3.3
2017-Dec-03 05:31N 34°39' E 135°16'4 7.6
2017-Dec-03 05:01N 34°41' E 135°12'0 0.0
2017-Dec-03 04:29N 34°41' E 135°12'0 0.0
2017-Dec-03 03:59N 34°41' E 135°12'0 0.0
2017-Dec-03 03:29N 34°41' E 135°12'0 0.0
2017-Dec-03 02:59N 34°41' E 135°12'0 0.0
2017-Dec-03 02:29N 34°41' E 135°12'0 0.0
2017-Dec-03 02:00N 34°41' E 135°12'0 0.0
2017-Dec-03 01:29N 34°41' E 135°12'0 0.0
2017-Dec-03 00:59N 34°41' E 135°12'0 0.0
2017-Dec-03 00:29N 34°41' E 135°12'0 0.0
2017-Dec-02 23:59N 34°41' E 135°12'0 0.0
2017-Dec-02 23:29N 34°41' E 135°12'3 5.8
2017-Dec-02 23:00N 34°41' E 135°15'1 2.8
2017-Dec-02 22:31N 34°41' E 135°17'1 1.1
2017-Dec-02 22:01N 34°41' E 135°18'1 2.2
2017-Dec-02 21:31N 34°40' E 135°18'4 7.1
2017-Dec-02 21:01N 34°41' E 135°14'1 2.7
2017-Dec-02 20:31N 34°41' E 135°12'0 0.0
2017-Dec-02 12:16N 34°41' E 135°12'2 8.2
2017-Dec-02 12:00N 34°40' E 135°15'1 2.5
2017-Dec-02 11:30N 34°39' E 135°15'1 2.2
2017-Dec-02 11:00N 34°39' E 135°16'1 2.1
2017-Dec-02 10:29N 34°39' E 135°15'1 2.7
2017-Dec-02 10:00N 34°40' E 135°15'1 1.8
2017-Dec-02 09:28N 34°41' E 135°15'0 0.0
2017-Dec-02 08:58N 34°41' E 135°15'0 0.0
2017-Dec-02 08:28N 34°41' E 135°15'0 0.0
2017-Dec-02 07:59N 34°41' E 135°15'2 3.2
2017-Dec-02 07:31N 34°40' E 135°14'2 4.0
2017-Dec-02 07:00N 34°39' E 135°16'1 2.5
2017-Dec-02 06:30N 34°39' E 135°15'0 0.0
2017-Dec-02 06:00N 34°39' E 135°15'0 0.0
2017-Dec-02 05:30N 34°39' E 135°15'0 0.0
2017-Dec-02 05:00N 34°39' E 135°15'0 0.0
2017-Dec-02 04:30N 34°39' E 135°15'1 1.7
2017-Dec-02 04:00N 34°40' E 135°14'0 0.4
2017-Dec-02 03:30N 34°40' E 135°14'0 0.0
2017-Dec-02 03:00N 34°40' E 135°14'0 0.0
2017-Dec-02 02:30N 34°40' E 135°14'0 0.0
2017-Dec-02 02:00N 34°40' E 135°14'0 0.0
2017-Dec-02 01:31N 34°40' E 135°14'0 0.0
2017-Dec-02 01:00N 34°40' E 135°14'0 0.0
2017-Dec-02 00:31N 34°40' E 135°14'0 0.0
2017-Dec-02 00:00N 34°40' E 135°14'0 0.0
2017-Dec-01 23:30N 34°40' E 135°14'4 7.4
2017-Dec-01 23:00N 34°41' E 135°18'1 1.6
2017-Dec-01 22:30N 34°42' E 135°18'1 2.4
2017-Dec-01 22:01N 34°41' E 135°18'1 2.0
2017-Dec-01 21:30N 34°41' E 135°17'4 8.1
2017-Dec-01 21:00N 34°41' E 135°12'0 0.0
2017-Dec-01 20:29N 34°41' E 135°12'  

Dump ship's entire track history